Data for 10/19/2014

Time Sea-Level Adjusted Pressure Absolute Pressure Temperature Relative Humidity Dew Point   
(mb) (inHg) (mb) (inHg) (C) (F) (%) (C) (F)
00:05 1020 30.12 849 25.07 8.1 46.5 52 -1.2 29.8
00:10 1020 30.12 849 25.07 8.5 47.4 51 -1 30.3
00:15 1020 30.12 849 25.07 8.5 47.4 51 -1 30.3
00:20 1020 30.12 849 25.07 8.3 46.9 53 -0.7 30.8
00:25 1020 30.12 849 25.07 7.7 45.9 55 -0.7 30.8
00:30 1020 30.12 849 25.07 7.7 45.9 54 -1 30.2
00:35 1020 30.12 850 25.1 8 46.3 53 -1 30.3
00:40 1020 30.12 849 25.07 7.8 46.1 54 -0.8 30.6
00:45 1020 30.12 849 25.07 7.4 45.4 56 -0.7 30.7
00:50 1020 30.12 850 25.1 7.1 44.8 57 -0.8 30.6
00:55 1020 30.12 850 25.1 7.1 44.8 56 -1 30.3
01:00 1020 30.12 850 25.1 7.4 45.3 55 -1 30.2
01:05 1020 30.12 850 25.1 7.6 45.7 54 -1 30.3
01:10 1020 30.12 850 25.1 7.9 46.1 54 -0.9 30.4
01:15 1020 30.12 850 25.1 7.9 46.1 54 -0.7 30.7
01:20 1020 30.12 850 25.1 7.7 45.8 55 -0.7 30.7
01:25 1020 30.12 850 25.1 7.5 45.5 56 -0.7 30.7
01:30 1021 30.15 850 25.1 7.2 45 58 -0.5 31.1
01:35 1020 30.12 850 25.1 6.7 44 60 -0.5 31.1
01:40 1021 30.15 850 25.1 6.3 43.4 60 -0.8 30.6
01:45 1021 30.15 850 25.1 6.3 43.3 61 -0.7 30.7
01:50 1021 30.15 850 25.1 6.3 43.3 60 -0.8 30.5
01:55 1021 30.15 850 25.1 6.7 44 58 -0.9 30.4
02:00 1021 30.15 850 25.1 7 44.5 58 -0.7 30.8
02:05 1021 30.15 850 25.1 7.1 44.9 57 -0.7 30.7
02:10 1021 30.15 850 25.1 7.3 45.2 57 -0.6 30.9
02:15 1021 30.15 850 25.1 7.3 45.2 57 -0.6 30.9
02:20 1021 30.15 850 25.1 7.3 45.1 58 -0.5 31
02:25 1021 30.15 850 25.1 7 44.7 58 -0.6 30.9
02:30 1021 30.15 850 25.1 7 44.6 58 -0.6 30.9
02:35 1021 30.15 850 25.1 7 44.6 59 -0.5 31
02:40 1021 30.15 850 25.1 7.1 44.7 58 -0.6 30.9
02:45 1021 30.15 850 25.1 7.2 45 58 -0.5 31
02:50 1021 30.15 850 25.1 6.9 44.4 59 -0.5 31.1
02:55 1021 30.15 850 25.1 6.9 44.5 59 -0.6 30.9
03:00 1021 30.15 850 25.1 6.8 44.3 59 -0.5 31.1
03:05 1021 30.15 850 25.1 6.6 43.9 60 -0.7 30.8
03:10 1021 30.15 850 25.1 6.5 43.7 60 -0.6 31
03:15 1021 30.15 850 25.1 6.2 43.2 61 -0.6 30.9
03:20 1021 30.15 850 25.1 6.1 43 62 -0.6 30.9
03:25 1021 30.15 850 25.1 6.2 43.2 61 -0.7 30.8
03:30 1021 30.15 850 25.1 6.3 43.3 61 -0.6 30.9
03:35 1021 30.15 850 25.1 6.3 43.3 61 -0.8 30.6
03:40 1021 30.15 850 25.1 6.6 43.8 59 -0.8 30.6
03:45 1021 30.15 850 25.1 6.6 43.9 60 -0.5 31.2
03:50 1021 30.15 850 25.1 6.4 43.6 61 -0.6 31
03:55 1021 30.15 850 25.1 6.3 43.3 62 -0.5 31.1
04:00 1021 30.15 850 25.1 6.3 43.3 61 -0.7 30.7
04:05 1021 30.15 850 25.1 6.5 43.7 59 -1 30.3
04:10 1020 30.12 850 25.1 6.5 43.6 58 -1.1 30.1
04:15 1020 30.12 850 25.1 6.1 43 62 -0.7 30.8
04:20 1020 30.12 850 25.1 5.5 41.8 64 -0.9 30.4
04:25 1020 30.12 850 25.1 5.7 42.3 61 -1.2 29.9
04:30 1020 30.12 850 25.1 7 44.5 57 -1 30.3
04:35 1020 30.12 850 25.1 6.5 43.8 62 -0.3 31.5
04:40 1020 30.12 850 25.1 6.5 43.6 60 -0.7 30.8
04:45 1020 30.12 850 25.1 6.5 43.7 62 -0.3 31.5
04:50 1020 30.12 850 25.1 5.7 42.3 64 -0.5 31.1
04:55 1020 30.12 850 25.1 5.8 42.5 63 -0.7 30.7
05:00 1020 30.12 850 25.1 6.1 42.9 62 -0.7 30.8
05:05 1020 30.12 850 25.1 5.8 42.5 63 -0.6 30.9
05:10 1020 30.12 850 25.1 5.7 42.2 63 -0.8 30.5
05:15 1020 30.12 850 25.1 6.4 43.4 60 -0.8 30.5
05:20 1020 30.12 850 25.1 6.3 43.4 62 -0.5 31.2
05:25 1020 30.12 850 25.1 6.2 43.2 61 -0.7 30.8
05:30 1020 30.12 850 25.1 6.4 43.4 61 -0.6 31
05:35 1020 30.12 850 25.1 6.2 43.2 62 -0.6 30.9
05:40 1020 30.12 850 25.1 5.9 42.7 63 -0.6 30.9
05:45 1020 30.12 850 25.1 5.7 42.2 64 -0.6 30.8
05:50 1020 30.12 850 25.1 5.6 42.1 65 -0.5 31.1
05:55 1020 30.12 850 25.1 5.3 41.6 66 -0.6 30.9
06:00 1021 30.15 850 25.1 5.1 41.2 66 -0.7 30.7
06:05 1021 30.15 850 25.1 5.1 41.2 65 -0.9 30.4
06:10 1021 30.15 850 25.1 5.3 41.5 66 -0.6 30.9
06:15 1021 30.15 850 25.1 5.1 41.2 65 -0.9 30.4
06:20 1021 30.15 850 25.1 5.2 41.3 65 -0.8 30.6
06:25 1021 30.15 850 25.1 5.1 41.2 65 -0.8 30.5
06:30 1021 30.15 850 25.1 5.1 41.2 65 -1 30.3
06:35 1021 30.15 850 25.1 5.1 41.2 65 -0.9 30.4
06:40 1021 30.15 850 25.1 5.3 41.5 65 -0.8 30.5
06:45 1021 30.15 850 25.1 5.5 42 64 -0.8 30.6
06:50 1021 30.15 850 25.1 5.7 42.3 63 -0.7 30.8
06:55 1021 30.15 850 25.1 5.4 41.7 65 -0.7 30.8
07:00 1021 30.15 850 25.1 5.4 41.8 64 -0.8 30.6
07:05 1021 30.15 850 25.1 5.6 42.2 63 -0.9 30.4
07:10 1021 30.15 850 25.1 5.5 41.8 66 -0.5 31.2
07:15 1021 30.15 850 25.1 5 41 65 -1.1 30.1
07:20 1021 30.15 850 25.1 5.7 42.2 61 -1.1 29.9
07:25 1021 30.15 850 25.1 6.4 43.5 60 -0.8 30.5
07:30 1021 30.15 850 25.1 5.5 41.9 64 -0.7 30.8
07:35 1021 30.15 850 25.1 5.9 42.6 61 -1.1 30
07:40 1021 30.15 850 25.1 6.6 43.8 60 -0.8 30.6
07:45 1021 30.15 850 25.1 6.8 44.3 58 -0.8 30.6
07:50 1021 30.15 850 25.1 6.6 44 59 -0.7 30.7
07:55 1021 30.15 850 25.1 6.7 44.1 59 -0.7 30.7
08:00 1021 30.15 850 25.1 6.8 44.2 59 -0.7 30.7
08:05 1021 30.15 850 25.1 6.9 44.4 59 -0.6 30.9
08:10 1021 30.15 850 25.1 7.2 45 57 -0.7 30.8
08:15 1021 30.15 850 25.1 7.6 45.7 56 -0.5 31.1
08:20 1021 30.15 850 25.1 8 46.3 54 -0.6 30.8
08:25 1021 30.15 850 25.1 8.5 47.3 53 -0.5 31.1
08:30 1021 30.15 850 25.1 8.9 48 52 -0.4 31.3
08:35 1021 30.15 850 25.1 9.3 48.7 51 -0.4 31.3
08:40 1021 30.15 850 25.1 9.4 49 51 -0.2 31.6
08:45 1021 30.15 850 25.1 9.7 49.5 50 -0.1 31.8
08:50 1021 30.15 850 25.1 10.1 50.2 49 -0 31.9
08:55 1021 30.15 850 25.1 10.2 50.3 48 -0.2 31.6
09:00 1021 30.15 850 25.1 10.5 50.9 47 -0.2 31.7
09:05 1021 30.15 850 25.1 10.8 51.5 46 -0.4 31.3
09:10 1021 30.15 850 25.1 11.5 52.7 45 0.1 32.2
09:15 1021 30.15 850 25.1 11.8 53.2 44 -0.1 31.8
09:20 1021 30.15 850 25.1 12 53.6 43 -0.1 31.9
09:25 1021 30.15 850 25.1 12.4 54.3 42 -0.2 31.7
09:30 1021 30.15 850 25.1 12.3 54.1 42 -0.1 31.8
09:35 1021 30.15 850 25.1 12.9 55.1 41 -0 32
09:40 1021 30.15 850 25.1 12.6 54.6 43 0.4 32.7
09:45 1021 30.15 850 25.1 11.8 53.3 43 -0.3 31.4
09:50 1021 30.15 850 25.1 11.9 53.3 42 -0.4 31.2
09:55 1021 30.15 850 25.1 12.2 53.9 41 -0.5 31.2
10:00 1021 30.15 850 25.1 12.6 54.6 42 -0 32
10:05 1021 30.15 850 25.1 12.8 55 41 -0.1 31.7
10:10 1021 30.15 850 25.1 13 55.3 40 -0.3 31.5
10:15 1021 30.15 850 25.1 13.8 56.9 40 0.5 32.9
10:20 1021 30.15 850 25.1 14.5 58.1 38 0.5 32.8
10:25 1021 30.15 850 25.1 15 58.9 36 0.2 32.3
10:30 1021 30.15 850 25.1 15 59.1 37 0.5 33
10:35 1021 30.15 850 25.1 14.4 57.9 38 0.2 32.3
10:40 1021 30.15 850 25.1 14.3 57.7 37 -0 32
10:45 1021 30.15 850 25.1 15.2 59.3 36 0.1 32.2
10:50 1021 30.15 850 25.1 15.7 60.3 34 0.1 32.3
10:55 1021 30.15 850 25.1 15.9 60.7 34 0.3 32.5
11:00 1020 30.12 850 25.1 16.1 61 33 0.1 32.1
11:05 1020 30.12 850 25.1 16.2 61.2 33 0 32.1
11:10 1020 30.12 850 25.1 16.2 61.1 33 0.1 32.1
11:15 1020 30.12 850 25.1 15.9 60.5 36 0.8 33.4
11:20 1020 30.12 850 25.1 14.9 58.8 35 -0.2 31.6
11:25 1020 30.12 850 25.1 16.2 61.1 33 -0.1 31.7
11:30 1020 30.12 850 25.1 16.8 62.2 33 0.3 32.6
11:35 1020 30.12 849 25.07 16.3 61.4 33 0.2 32.3
11:40 1020 30.12 849 25.07 16 60.8 35 0.7 33.3
11:45 1020 30.12 849 25.07 15.7 60.3 34 0.2 32.3
11:50 1020 30.12 849 25.07 16.8 62.2 33 0.6 33
11:55 1020 30.12 849 25.07 16.8 62.2 33 0.5 33
12:00 1020 30.12 849 25.07 17.4 63.2 31 0.4 32.7
12:05 1020 30.12 849 25.07 17.5 63.6 32 0.8 33.4
12:10 1020 30.12 849 25.07 17.6 63.7 32 0.9 33.7
12:15 1020 30.12 849 25.07 17.7 63.9 32 1 33.8
12:20 1020 30.12 849 25.07 18 64.5 31 0.7 33.3
12:25 1020 30.12 849 25.07 18.2 64.7 31 0.9 33.5
12:30 1020 30.12 849 25.07 17.8 64.1 31 0.6 33.1
12:35 1020 30.12 849 25.07 18.1 64.6 31 0.9 33.6
12:40 1020 30.12 849 25.07 18.7 65.6 30 1 33.8
12:45 1019 30.09 849 25.07 17.8 64.1 32 1.2 34.1
12:50 1019 30.09 849 25.07 18.5 65.3 30 0.7 33.3
12:55 1019 30.09 848 25.04 19 66.1 29 0.8 33.5
13:00 1019 30.09 848 25.04 18.8 65.8 30 1.2 34.1
13:05 1019 30.09 848 25.04 18.6 65.4 30 0.7 33.3
13:10 1019 30.09 848 25.04 18.9 66 31 1.4 34.6
13:15 1019 30.09 848 25.04 18.2 64.8 32 1.3 34.3
13:20 1019 30.09 848 25.04 18.3 65 30 0.8 33.4
13:25 1019 30.09 848 25.04 18.7 65.7 31 1.4 34.5
13:30 1019 30.09 848 25.04 19.3 66.8 30 1.3 34.3
13:35 1019 30.09 848 25.04 19.9 67.7 29 1.3 34.4
13:40 1019 30.09 848 25.04 20.1 68.2 28 1.3 34.4
13:45 1019 30.09 848 25.04 20.1 68.2 29 1.7 35.1
13:50 1019 30.09 848 25.04 20 68.1 29 1.6 34.8
13:55 1019 30.09 848 25.04 19.7 67.5 29 1.2 34.2
14:00 1019 30.09 848 25.04 19.8 67.7 29 1.3 34.3
14:05 1018 30.06 848 25.04 20.6 69 27 1.3 34.3
14:10 1018 30.06 848 25.04 20.3 68.5 28 1.4 34.5
14:15 1018 30.06 848 25.04 20 68 28 1.3 34.3
14:20 1018 30.06 848 25.04 19.3 66.7 31 1.7 35.1
14:25 1018 30.06 848 25.04 19 66.2 30 1 33.8
14:30 1018 30.06 848 25.04 19 66.3 29 0.8 33.4
14:35 1018 30.06 848 25.04 19.9 67.8 28 1.1 33.9
14:40 1018 30.06 848 25.04 20.1 68.1 27 0.8 33.5
14:45 1018 30.06 847 25.01 20.5 68.9 27 1 33.8
14:50 1018 30.06 847 25.01 20.7 69.3 26 0.9 33.6
14:55 1018 30.06 847 25.01 21.3 70.3 26 1.1 34
15:00 1018 30.06 847 25.01 21.3 70.4 26 1.2 34.1
15:05 1018 30.06 847 25.01 21.6 70.9 26 1.2 34.2
15:10 1018 30.06 847 25.01 20.8 69.4 27 1.1 34
15:15 1018 30.06 847 25.01 20.3 68.5 27 0.7 33.2
15:20 1018 30.06 847 25.01 20.9 69.7 24 0 32.1
15:25 1018 30.06 847 25.01 21.1 70 25 0.5 33
15:30 1018 30.06 847 25.01 21.1 69.9 24 0.1 32.2
15:35 1018 30.06 847 25.01 20.9 69.7 25 0.6 33
15:40 1018 30.06 847 25.01 20.7 69.2 25 0.3 32.6
15:45 1018 30.06 847 25.01 20.9 69.6 26 0.8 33.5
15:50 1018 30.06 847 25.01 20.8 69.4 26 0.6 33.1
15:55 1018 30.06 847 25.01 21 69.8 24 0.1 32.2
16:00 1018 30.06 847 25.01 20.7 69.3 25 0.2 32.3
16:05 1018 30.06 847 25.01 21 69.7 24 -0.4 31.3
16:10 1018 30.06 847 25.01 20.9 69.6 24 -0.3 31.5
16:15 1018 30.06 847 25.01 21.1 70 23 -0.4 31.2
16:20 1018 30.06 847 25.01 21.1 70 23 -0.7 30.8
16:25 1018 30.06 847 25.01 21.3 70.3 23 -0.6 30.8
16:30 1018 30.06 847 25.01 21.1 69.9 24 -0 31.9
16:35 1018 30.06 847 25.01 20.9 69.6 24 -0.1 31.9
16:40 1018 30.06 847 25.01 20.5 68.9 25 -0.1 31.9
16:45 1018 30.06 847 25.01 20.3 68.5 25 -0.3 31.4
16:50 1018 30.06 847 25.01 20.2 68.4 25 -0.3 31.4
16:55 1018 30.06 847 25.01 20.3 68.6 24 -0.6 30.9
17:00 1018 30.06 847 25.01 20.3 68.6 24 -0.6 31
17:05 1018 30.06 847 25.01 20.3 68.5 25 -0.4 31.3
17:10 1018 30.06 847 25.01 20 67.9 25 -0.3 31.5
17:15 1018 30.06 847 25.01 19.7 67.4 26 -0.2 31.6
17:20 1018 30.06 847 25.01 19.5 67.1 28 0.7 33.3
17:25 1018 30.06 847 25.01 18.6 65.5 30 0.8 33.4
17:30 1018 30.06 847 25.01 17.2 63 33 1 33.8
17:35 1018 30.06 847 25.01 16 60.8 34 0.4 32.7
17:40 1018 30.06 847 25.01 15.4 59.6 35 -0.1 31.9
17:45 1018 30.06 847 25.01 15 58.9 38 0.9 33.6
17:50 1018 30.06 847 25.01 14.9 58.7 35 -0.5 31.2
17:55 1018 30.06 847 25.01 14.5 58 37 0.2 32.3
18:00 1018 30.06 847 25.01 13.8 56.8 40 0.4 32.6
18:05 1018 30.06 847 25.01 13.5 56.3 40 0.4 32.7
18:10 1018 30.06 847 25.01 13.3 55.9 40 0.2 32.3
18:15 1018 30.06 847 25.01 13.1 55.5 39 -0.5 31.1
18:20 1018 30.06 847 25.01 13.4 56.1 38 -0.7 30.8
18:25 1018 30.06 847 25.01 13.8 56.8 37 -0.8 30.6
18:30 1018 30.06 847 25.01 13.9 57.1 34 -1.4 29.4
18:35 1018 30.06 847 25.01 14.2 57.5 36 -0.5 31.1
18:40 1018 30.06 847 25.01 13.8 56.8 38 -0.2 31.6
18:45 1018 30.06 847 25.01 13.7 56.6 38 -0.4 31.4
18:50 1018 30.06 847 25.01 13.6 56.5 37 -0.8 30.6
18:55 1018 30.06 847 25.01 13.9 57 38 -0.2 31.6
19:00 1018 30.06 847 25.01 13.4 56.1 40 0 32.1
19:05 1018 30.06 847 25.01 13.2 55.8 37 -1.2 29.9
19:10 1018 30.06 847 25.01 13.3 55.9 39 -0.3 31.5
19:15 1018 30.06 847 25.01 13 55.4 40 -0.2 31.7
19:20 1018 30.06 847 25.01 12.5 54.5 40 -0.7 30.8
19:25 1018 30.06 847 25.01 12.5 54.6 39 -0.8 30.5
19:30 1018 30.06 847 25.01 12.7 54.8 38 -1.3 29.6
19:35 1018 30.06 847 25.01 12.6 54.8 40 -0.6 30.9
19:40 1018 30.06 847 25.01 12.4 54.3 40 -0.8 30.6
19:45 1018 30.06 847 25.01 12.4 54.4 40 -0.9 30.4
19:50 1018 30.06 847 25.01 12.5 54.5 38 -1.5 29.4
19:55 1018 30.06 847 25.01 12.7 54.9 38 -1.2 29.9
20:00 1018 30.06 847 25.01 12.4 54.2 40 -0.8 30.5
20:05 1018 30.06 847 25.01 12 53.6 41 -0.7 30.7
20:10 1018 30.06 847 25.01 11.9 53.4 41 -0.8 30.6
20:15 1018 30.06 847 25.01 11.7 53 42 -0.9 30.4
20:20 1018 30.06 847 25.01 11.5 52.7 42 -0.9 30.3
20:25 1018 30.06 847 25.01 11.6 52.9 41 -1.2 29.8
20:30 1018 30.06 847 25.01 11.8 53.2 40 -1.2 29.8
20:35 1018 30.06 847 25.01 11.8 53.3 40 -1.4 29.5
20:40 1018 30.06 847 25.01 11.7 53 40 -1.4 29.5
20:45 1018 30.06 847 25.01 11.7 53 40 -1.5 29.3
20:50 1018 30.06 847 25.01 12 53.6 38 -2 28.4
20:55 1018 30.06 847 25.01 12 53.7 38 -1.7 28.9
21:00 1018 30.06 847 25.01 12 53.5 38 -1.7 29
21:05 1018 30.06 847 25.01 11.7 53.1 40 -1.4 29.4
21:10 1018 30.06 847 25.01 11.5 52.7 39 -2 28.4
21:15 1018 30.06 847 25.01 11.8 53.2 37 -2.4 27.6
21:20 1018 30.06 847 25.01 11.9 53.5 37 -2.1 28.3
21:25 1018 30.06 847 25.01 11.7 53 38 -2.1 28.2
21:30 1018 30.06 847 25.01 11.5 52.6 39 -2 28.4
21:35 1018 30.06 847 25.01 11.5 52.6 37 -2.6 27.3
21:40 1018 30.06 847 25.01 11.3 52.4 38 -2.4 27.7
21:45 1018 30.06 847 25.01 11.2 52.1 39 -2.2 28
21:50 1018 30.06 847 25.01 10.9 51.5 39 -2.4 27.6
21:55 1018 30.06 847 25.01 10.8 51.5 39 -2.7 27.2
22:00 1018 30.06 847 25.01 10.8 51.4 40 -2.4 27.7
22:05 1018 30.06 847 25.01 10.4 50.6 41 -2.4 27.7
22:10 1018 30.06 847 25.01 10.3 50.6 40 -2.8 27
22:15 1018 30.06 847 25.01 10.6 51.1 39 -2.8 27
22:20 1018 30.06 847 25.01 10.5 50.8 39 -2.9 26.9
22:25 1018 30.06 847 25.01 10.4 50.8 38 -3.1 26.4
22:30 1018 30.06 847 25.01 10.6 51 39 -2.9 26.7
22:35 1018 30.06 847 25.01 10.5 50.9 38 -3 26.6
22:40 1018 30.06 847 25.01 10.5 50.9 37 -3.5 25.6
22:45 1018 30.06 847 25.01 10.6 51.1 36 -3.7 25.4
22:50 1018 30.06 847 25.01 10.7 51.2 36 -3.8 25.2
22:55 1018 30.06 847 25.01 10.8 51.4 36 -3.8 25.1
23:00 1018 30.06 847 25.01 10.6 51.1 36 -3.8 25.2
23:05 1018 30.06 847 25.01 10.5 50.9 36 -3.9 25
23:10 1018 30.06 847 25.01 10.6 51.1 34 -4.5 23.8
23:15 1018 30.06 847 25.01 11 51.8 33 -4.6 23.7
23:20 1018 30.06 847 25.01 11.2 52.2 32 -4.9 23.1
23:25 1018 30.06 847 25.01 11.3 52.4 31 -5.1 22.9
23:30 1018 30.06 847 25.01 11.4 52.5 31 -4.9 23.1
23:35 1018 30.06 847 25.01 11.4 52.5 31 -5 23.1
23:40 1018 30.06 847 25.01 11.2 52.1 32 -4.9 23.1
23:45 1018 30.06 847 25.01 11 51.8 32 -4.9 23.2
23:50 1018 30.06 847 25.01 11 51.8 32 -5 23
23:55 1018 30.06 847 25.01 10.9 51.6 31 -5.3 22.4
24:00 1018 30.06 847 25.01 11.2 52.2 30 -5.5 22.2